Time;durP1;ratioP1;P1;durP2;ratioP2;P2;SDS_P1;SDS_P2;PMS_P1;PMS_P2;Temp;Humidity;BMP_temperature;BMP_pressure;BME280_temperature;BME280_humidity;BME280_pressure;Samples;Min_cycle;Max_cycle;Signal;HPM_P1;HPM_P2
2024/02/13 00:00:47;;;;;;;6.63;1.77;;;6.00;99.90;;;;;;5095039;28;20051;-61
2024/02/13 00:03:14;;;;;;;5.72;1.80;;;6.00;99.90;;;;;;5102909;28;20067;-62
2024/02/13 00:05:43;;;;;;;5.65;1.30;;;6.00;99.90;;;;;;5099282;28;20146;-62
2024/02/13 00:08:13;;;;;;;12.23;2.08;;;6.00;99.90;;;;;;5096107;28;20436;-62
2024/02/13 00:10:41;;;;;;;5.85;2.20;;;6.10;99.90;;;;;;5098588;27;20105;-62
2024/02/13 00:13:08;;;;;;;10.50;1.42;;;6.10;99.90;;;;;;5098288;28;20267;-62
2024/02/13 00:15:37;;;;;;;6.35;2.45;;;6.10;99.90;;;;;;5098456;28;20144;-62
2024/02/13 00:18:07;;;;;;;3.10;1.15;;;6.10;99.90;;;;;;5093905;28;20055;-62
2024/02/13 00:20:34;;;;;;;6.85;1.70;;;6.10;99.90;;;;;;5093618;28;20303;-62
2024/02/13 00:23:01;;;;;;;8.60;2.30;;;6.10;99.90;;;;;;5096494;28;20055;-62
2024/02/13 00:25:28;;;;;;;13.35;1.85;;;6.20;99.90;;;;;;5099213;28;20079;-62
2024/02/13 00:27:55;;;;;;;4.90;1.65;;;6.10;99.90;;;;;;5089997;28;20059;-62
2024/02/13 00:30:23;;;;;;;7.22;1.80;;;6.10;99.90;;;;;;5098171;28;20131;-62
2024/02/13 00:32:50;;;;;;;10.18;1.70;;;6.10;99.90;;;;;;5092772;28;20044;-61
2024/02/13 00:35:17;;;;;;;7.13;1.65;;;6.10;99.90;;;;;;5099216;28;20117;-62
2024/02/13 00:37:44;;;;;;;2.70;1.05;;;6.10;99.90;;;;;;5095472;28;20113;-62
2024/02/13 00:40:11;;;;;;;11.60;2.47;;;6.10;99.90;;;;;;5101374;28;20051;-62
2024/02/13 00:42:37;;;;;;;6.40;1.20;;;6.10;99.90;;;;;;5092326;28;20267;-61
2024/02/13 00:45:07;;;;;;;7.28;1.27;;;6.10;99.90;;;;;;5102210;28;20056;-62
2024/02/13 00:47:34;;;;;;;8.55;1.90;;;6.10;99.90;;;;;;5103543;28;20043;-61
2024/02/13 00:50:02;;;;;;;6.80;1.50;;;6.00;99.90;;;;;;5105497;28;20616;-61
2024/02/13 00:52:28;;;;;;;7.20;1.52;;;6.00;99.90;;;;;;5104462;28;20040;-61
2024/02/13 00:54:56;;;;;;;7.95;1.20;;;6.10;99.90;;;;;;5099397;28;20066;-62
2024/02/13 00:57:24;;;;;;;3.78;1.45;;;6.00;99.90;;;;;;5098380;28;20047;-61
2024/02/13 00:59:51;;;;;;;10.32;2.65;;;6.00;99.90;;;;;;5098979;28;20074;-62
2024/02/13 01:02:18;;;;;;;6.25;1.20;;;6.00;99.90;;;;;;5099724;28;20055;-62
2024/02/13 01:04:46;;;;;;;5.72;1.73;;;5.90;99.90;;;;;;5105457;28;20047;-62
2024/02/13 01:07:12;;;;;;;4.78;1.48;;;5.90;99.90;;;;;;5099452;28;20081;-62
2024/02/13 01:09:39;;;;;;;4.07;1.33;;;5.90;99.90;;;;;;5101077;28;20058;-62
2024/02/13 01:12:06;;;;;;;5.38;1.63;;;5.90;99.90;;;;;;5098144;28;20043;-62
2024/02/13 01:14:33;;;;;;;9.43;1.27;;;5.90;99.90;;;;;;5101292;28;20047;-62
2024/02/13 01:17:00;;;;;;;9.65;1.85;;;5.90;99.90;;;;;;5106790;28;20074;-62
2024/02/13 01:19:27;;;;;;;10.25;1.73;;;5.90;99.90;;;;;;5091908;28;20083;-62
2024/02/13 01:21:54;;;;;;;6.18;1.13;;;5.90;99.90;;;;;;5096565;28;20183;-62
2024/02/13 01:24:26;;;;;;;5.57;1.40;;;5.90;99.90;;;;;;5100263;28;20493;-62
2024/02/13 01:26:57;;;;;;;7.82;1.60;;;5.90;99.90;;;;;;5103669;28;20132;-62
2024/02/13 01:29:24;;;;;;;12.13;1.52;;;5.80;99.90;;;;;;5099431;28;20055;-62
2024/02/13 01:31:51;;;;;;;9.02;1.92;;;5.80;99.90;;;;;;5096737;28;20123;-62
2024/02/13 01:34:18;;;;;;;6.40;1.58;;;5.90;99.90;;;;;;5093544;28;20114;-63
2024/02/13 01:36:45;;;;;;;8.38;2.22;;;5.90;99.90;;;;;;5099736;28;20119;-62
2024/02/13 01:39:12;;;;;;;2.50;1.13;;;5.90;99.90;;;;;;5101444;28;20078;-62
2024/02/13 01:41:39;;;;;;;4.65;1.27;;;5.80;99.90;;;;;;5105723;28;20465;-62
2024/02/13 01:44:06;;;;;;;8.25;1.30;;;5.80;99.90;;;;;;5105044;28;20043;-62
2024/02/13 01:46:33;;;;;;;6.95;1.45;;;5.80;99.90;;;;;;5098563;28;20092;-62
2024/02/13 01:49:00;;;;;;;9.90;1.90;;;5.80;99.90;;;;;;5089446;28;20323;-62
2024/02/13 01:51:31;;;;;;;12.00;1.60;;;5.80;99.90;;;;;;5104112;28;20044;-61
2024/02/13 01:53:59;;;;;;;8.70;1.83;;;5.80;99.90;;;;;;5098704;28;20087;-62
2024/02/13 01:56:28;;;;;;;9.40;1.58;;;5.80;99.90;;;;;;5096801;28;20036;-62
2024/02/13 01:58:59;;;;;;;10.95;2.63;;;5.80;99.90;;;;;;5086848;28;20427;-62
2024/02/13 02:01:27;;;;;;;6.50;1.30;;;5.80;99.90;;;;;;5101560;28;20054;-62
2024/02/13 02:03:54;;;;;;;13.43;4.57;;;5.80;99.90;;;;;;5097283;28;20511;-61
2024/02/13 02:06:21;;;;;;;4.30;1.13;;;5.80;99.90;;;;;;5092990;28;20119;-62
2024/02/13 02:08:48;;;;;;;10.93;1.65;;;5.80;99.90;;;;;;5098288;28;20302;-64
2024/02/13 02:11:15;;;;;;;4.03;1.25;;;5.80;99.90;;;;;;5096151;28;20071;-62
2024/02/13 02:13:42;;;;;;;6.60;1.58;;;5.80;99.90;;;;;;5097109;28;20492;-62
2024/02/13 02:16:10;;;;;;;10.82;1.20;;;5.80;99.90;;;;;;5098040;28;20048;-62
2024/02/13 02:18:36;;;;;;;7.95;1.38;;;5.70;99.90;;;;;;5096987;28;20116;-62
2024/02/13 02:21:04;;;;;;;5.03;1.25;;;5.70;99.90;;;;;;5097823;28;20036;-62
2024/02/13 02:23:31;;;;;;;5.30;1.00;;;5.70;99.90;;;;;;5100857;28;20062;-62
2024/02/13 02:25:58;;;;;;;12.98;3.25;;;5.70;99.90;;;;;;5091673;28;20398;-62
2024/02/13 02:28:25;;;;;;;6.30;1.58;;;5.70;99.90;;;;;;5099251;28;20240;-62
2024/02/13 02:30:51;;;;;;;5.53;1.75;;;5.70;99.90;;;;;;5104579;28;20059;-62
2024/02/13 02:33:18;;;;;;;6.22;0.90;;;5.70;99.90;;;;;;5104263;28;20048;-62
2024/02/13 02:35:45;;;;;;;10.80;1.60;;;5.70;99.90;;;;;;5094387;28;20044;-62
2024/02/13 02:38:15;;;;;;;7.70;1.27;;;5.70;99.90;;;;;;5097580;28;20338;-62
2024/02/13 02:40:45;;;;;;;8.38;1.10;;;5.70;99.90;;;;;;5101273;28;20488;-62
2024/02/13 02:43:11;;;;;;;6.30;1.30;;;5.80;99.90;;;;;;5098405;28;20040;-62
2024/02/13 02:45:38;;;;;;;7.70;1.50;;;5.80;99.90;;;;;;5099931;28;20409;-61
2024/02/13 02:48:06;;;;;;;10.63;2.58;;;5.80;99.90;;;;;;5092484;28;20144;-61
2024/02/13 02:50:34;;;;;;;7.88;1.30;;;5.80;99.90;;;;;;5089181;28;20513;-62
2024/02/13 02:53:01;;;;;;;7.70;2.08;;;5.80;99.90;;;;;;5096291;28;20056;-62
2024/02/13 02:55:29;;;;;;;10.20;1.33;;;5.80;99.90;;;;;;5097157;28;20511;-62
2024/02/13 02:57:56;;;;;;;10.77;1.10;;;5.80;99.90;;;;;;5100153;28;20162;-63
2024/02/13 03:00:23;;;;;;;7.80;1.40;;;5.80;99.90;;;;;;5095405;28;20047;-61
2024/02/13 03:02:50;;;;;;;9.48;1.00;;;5.80;99.90;;;;;;5103249;28;20056;-62
2024/02/13 03:05:18;;;;;;;8.77;1.40;;;5.70;99.90;;;;;;5099988;28;20491;-62
2024/02/13 03:07:45;;;;;;;11.90;1.42;;;5.80;99.90;;;;;;5095989;28;20605;-62
2024/02/13 03:10:13;;;;;;;7.40;0.98;;;5.80;99.90;;;;;;5097134;28;20070;-62
2024/02/13 03:12:40;;;;;;;5.97;1.67;;;5.80;99.90;;;;;;5097077;28;20486;-62
2024/02/13 03:15:07;;;;;;;9.90;1.40;;;5.80;99.90;;;;;;5101623;28;20905;-62
2024/02/13 03:17:37;;;;;;;6.38;1.05;;;5.80;99.90;;;;;;5104696;28;20108;-61
2024/02/13 03:20:09;;;;;;;10.23;1.23;;;5.80;99.90;;;;;;5097230;28;20059;-62
2024/02/13 03:22:37;;;;;;;9.07;1.77;;;5.70;99.90;;;;;;5101193;28;20117;-62
2024/02/13 03:25:05;;;;;;;8.23;2.15;;;5.80;99.90;;;;;;5098931;28;20073;-63
2024/02/13 03:27:32;;;;;;;5.22;1.58;;;5.80;99.90;;;;;;5087369;28;20661;-62
2024/02/13 03:29:58;;;;;;;11.88;1.95;;;5.80;99.90;;;;;;5095428;28;20611;-62
2024/02/13 03:32:26;;;;;;;6.13;1.08;;;5.80;99.90;;;;;;5100887;28;20039;-62
2024/02/13 03:34:53;;;;;;;3.63;0.85;;;5.80;99.90;;;;;;5097364;28;20063;-62
2024/02/13 03:37:20;;;;;;;5.80;1.52;;;5.80;99.90;;;;;;5091002;28;20051;-62
2024/02/13 03:39:51;;;;;;;3.67;1.05;;;5.80;99.90;;;;;;5097118;28;20104;-60
2024/02/13 03:42:22;;;;;;;6.15;1.52;;;5.80;99.90;;;;;;5094662;28;20123;-62
2024/02/13 03:44:49;;;;;;;14.38;1.90;;;5.80;99.90;;;;;;5099069;28;20491;-62
2024/02/13 03:47:16;;;;;;;4.35;0.80;;;5.80;99.90;;;;;;5103874;28;20046;-62
2024/02/13 03:49:42;;;;;;;7.43;1.48;;;5.80;99.90;;;;;;5095826;28;20043;-62
2024/02/13 03:52:09;;;;;;;2.47;0.93;;;5.70;99.90;;;;;;5103517;28;20064;-62
2024/02/13 03:54:37;;;;;;;9.80;1.20;;;5.70;99.90;;;;;;5096950;28;20048;-62
2024/02/13 03:57:04;;;;;;;7.60;1.25;;;5.60;99.90;;;;;;5107934;28;20051;-62
2024/02/13 03:59:31;;;;;;;6.05;1.25;;;5.60;99.90;;;;;;5104065;28;20044;-61
2024/02/13 04:01:58;;;;;;;2.65;0.77;;;5.60;99.90;;;;;;5100375;28;20087;-62
2024/02/13 04:04:25;;;;;;;8.15;1.25;;;5.60;99.90;;;;;;5095757;28;20043;-61
2024/02/13 04:06:52;;;;;;;6.38;1.25;;;5.60;99.90;;;;;;5105526;28;20054;-62
2024/02/13 04:09:19;;;;;;;2.20;0.63;;;5.60;99.90;;;;;;5093448;28;20088;-62
2024/02/13 04:11:46;;;;;;;3.22;1.05;;;5.60;99.90;;;;;;5103883;28;20398;-62
2024/02/13 04:14:13;;;;;;;15.75;2.53;;;5.60;99.90;;;;;;5106022;28;20135;-61
2024/02/13 04:16:44;;;;;;;5.57;1.30;;;5.60;99.90;;;;;;5104435;28;20043;-62
2024/02/13 04:19:11;;;;;;;3.35;0.98;;;5.60;99.90;;;;;;5103551;28;20047;-62
2024/02/13 04:21:38;;;;;;;6.07;0.80;;;5.60;99.90;;;;;;5101227;28;20040;-62
2024/02/13 04:24:06;;;;;;;6.40;1.38;;;5.60;99.90;;;;;;5104590;28;20089;-62
2024/02/13 04:26:41;;;;;;;7.60;1.05;;;5.60;99.90;;;;;;5096362;28;20409;-61
2024/02/13 04:29:08;;;;;;;4.20;0.95;;;5.70;99.90;;;;;;5100520;28;20092;-62
2024/02/13 04:31:38;;;;;;;3.53;2.58;;;5.80;99.90;;;;;;5096069;28;20054;-62
2024/02/13 04:34:08;;;;;;;10.27;1.33;;;5.70;99.90;;;;;;5092151;28;20044;-62
2024/02/13 04:36:38;;;;;;;5.72;1.00;;;5.80;99.90;;;;;;5103255;27;20122;-64
2024/02/13 04:39:07;;;;;;;4.30;1.02;;;5.80;99.90;;;;;;5102547;28;20420;-62
2024/02/13 04:41:33;;;;;;;10.35;1.10;;;5.90;99.90;;;;;;5094863;28;20044;-62
2024/02/13 04:44:00;;;;;;;7.13;1.00;;;5.90;99.90;;;;;;5098984;28;20087;-62
2024/02/13 04:46:27;;;;;;;5.28;1.42;;;6.00;99.90;;;;;;5103524;28;20104;-62
2024/02/13 04:48:54;;;;;;;3.38;0.80;;;6.00;99.90;;;;;;5095558;28;20093;-62
2024/02/13 04:51:23;;;;;;;5.93;0.75;;;6.00;99.90;;;;;;5095420;28;20044;-61
2024/02/13 04:53:50;;;;;;;4.43;1.08;;;5.70;99.90;;;;;;5096430;27;20039;-61
2024/02/13 04:56:17;;;;;;;8.45;1.30;;;6.10;99.90;;;;;;5100747;28;20044;-62
2024/02/13 04:58:44;;;;;;;3.30;0.60;;;6.20;99.90;;;;;;5097220;28;20044;-61
2024/02/13 05:01:13;;;;;;;7.10;0.95;;;6.20;99.90;;;;;;5099254;28;20065;-61
2024/02/13 05:09:05;;;;;;;1.92;0.82;;;6.20;99.90;;;;;;5100627;28;20036;-61
2024/02/13 05:11:32;;;;;;;5.30;0.63;;;6.30;99.90;;;;;;5096827;28;20079;-61
2024/02/13 05:14:02;;;;;;;5.35;0.60;;;6.30;99.90;;;;;;5101948;28;20048;-61
2024/02/13 05:16:31;;;;;;;3.13;0.57;;;6.30;99.90;;;;;;5099493;28;20077;-61
2024/02/13 05:18:58;;;;;;;2.60;0.80;;;6.30;99.90;;;;;;5092895;28;20078;-61
2024/02/13 05:21:26;;;;;;;2.17;0.50;;;6.30;99.90;;;;;;5100397;28;20507;-61
2024/02/13 05:23:53;;;;;;;2.70;0.82;;;6.40;99.90;;;;;;5104841;28;20131;-62
2024/02/13 05:26:20;;;;;;;7.45;0.88;;;6.40;99.90;;;;;;5103307;28;20134;-63
2024/02/13 05:28:48;;;;;;;3.03;0.50;;;6.50;99.90;;;;;;5092628;28;20047;-62
2024/02/13 05:31:17;;;;;;;2.72;0.77;;;6.50;99.90;;;;;;5101359;28;20150;-62
2024/02/13 05:33:45;;;;;;;11.48;2.78;;;6.50;99.90;;;;;;5094070;28;20036;-61
2024/02/13 05:36:12;;;;;;;5.57;2.20;;;6.50;99.90;;;;;;5093541;28;20044;-62
2024/02/13 05:38:47;;;;;;;3.28;0.70;;;6.60;99.90;;;;;;5099977;28;20114;-62
2024/02/13 05:41:15;;;;;;;4.22;0.80;;;6.50;99.90;;;;;;5092575;28;20051;-62
2024/02/13 05:43:42;;;;;;;7.10;2.38;;;6.50;99.90;;;;;;5099326;28;20044;-62
2024/02/13 05:46:09;;;;;;;2.88;0.70;;;6.60;99.90;;;;;;5099371;28;20534;-62
2024/02/13 05:48:36;;;;;;;2.05;0.43;;;6.60;99.90;;;;;;5099952;28;20043;-62
2024/02/13 05:51:11;;;;;;;3.63;0.73;;;6.60;99.90;;;;;;5096579;28;20408;-61
2024/02/13 05:53:41;;;;;;;3.65;0.95;;;6.60;99.90;;;;;;5091290;28;20054;-62
2024/02/13 05:56:09;;;;;;;2.40;0.52;;;6.60;99.90;;;;;;5089809;28;20072;-62
2024/02/13 05:58:38;;;;;;;5.20;0.93;;;6.60;99.90;;;;;;5095032;28;20420;-62
2024/02/13 06:01:05;;;;;;;1.98;0.50;;;6.70;99.90;;;;;;5098710;28;20052;-62
2024/02/13 06:03:32;;;;;;;3.08;0.40;;;6.70;99.90;;;;;;5091532;28;20459;-62
2024/02/13 06:06:00;;;;;;;0.50;0.40;;;6.70;99.90;;;;;;5098141;28;20044;-62
2024/02/13 06:08:27;;;;;;;5.78;0.82;;;6.70;99.90;;;;;;5092345;28;20405;-62
2024/02/13 06:10:55;;;;;;;2.10;0.70;;;6.70;99.90;;;;;;5097821;28;20062;-64
2024/02/13 06:13:22;;;;;;;6.53;0.90;;;6.70;99.90;;;;;;5103952;28;20036;-62
2024/02/13 06:15:49;;;;;;;22.30;2.75;;;6.70;99.90;;;;;;5093134;28;20056;-62
2024/02/13 06:18:16;;;;;;;6.72;3.20;;;6.70;99.90;;;;;;5099606;28;20040;-62
2024/02/13 06:20:44;;;;;;;3.13;0.77;;;6.70;99.90;;;;;;5103221;28;20044;-61
2024/02/13 06:23:11;;;;;;;4.18;0.70;;;6.80;99.90;;;;;;5089854;28;20236;-62
2024/02/13 06:25:38;;;;;;;1.63;0.57;;;6.80;99.90;;;;;;5098042;28;20354;-62
2024/02/13 06:28:06;;;;;;;4.72;1.85;;;6.80;99.90;;;;;;5091140;28;20126;-61
2024/02/13 06:30:32;;;;;;;5.55;0.77;;;6.80;99.90;;;;;;5095662;28;20055;-62
2024/02/13 06:33:00;;;;;;;1.38;0.65;;;6.80;99.90;;;;;;5093991;28;20074;-63
2024/02/13 06:35:27;;;;;;;3.92;0.63;;;6.80;99.90;;;;;;5099048;28;20043;-62
2024/02/13 06:37:54;;;;;;;7.15;0.77;;;6.80;99.90;;;;;;5096955;28;20044;-62
2024/02/13 06:40:21;;;;;;;6.10;0.80;;;6.80;99.90;;;;;;5093002;28;20523;-62
2024/02/13 06:42:48;;;;;;;6.95;0.82;;;6.80;99.90;;;;;;5102583;28;20063;-62
2024/02/13 06:45:15;;;;;;;3.33;0.98;;;6.80;99.90;;;;;;5094863;28;20100;-62
2024/02/13 06:47:42;;;;;;;5.65;0.88;;;6.80;99.90;;;;;;5093022;28;20483;-62
2024/02/13 06:50:12;;;;;;;4.90;0.80;;;6.80;99.90;;;;;;5095314;28;20461;-62
2024/02/13 06:52:40;;;;;;;3.75;1.00;;;6.80;99.90;;;;;;5093602;28;20048;-62
2024/02/13 06:55:07;;;;;;;10.40;1.00;;;6.80;99.90;;;;;;5099508;28;20143;-61
2024/02/13 06:57:35;;;;;;;3.78;0.82;;;6.80;99.90;;;;;;5098966;28;20130;-62
2024/02/13 07:00:09;;;;;;;8.05;2.10;;;6.80;99.90;;;;;;5098739;28;20050;-61
2024/02/13 07:02:36;;;;;;;14.45;4.00;;;6.80;99.90;;;;;;5096134;28;20098;-62
2024/02/13 07:05:04;;;;;;;4.10;1.98;;;6.90;99.90;;;;;;5101041;28;20074;-62
2024/02/13 07:07:31;;;;;;;4.13;1.05;;;6.90;99.90;;;;;;5099560;28;20040;-61
2024/02/13 07:10:12;;;;;;;8.07;1.15;;;6.90;99.90;;;;;;5098924;28;20074;-62
2024/02/13 07:12:40;;;;;;;11.25;3.00;;;6.90;99.90;;;;;;5101381;28;20091;-62
2024/02/13 07:15:07;;;;;;;6.45;1.10;;;6.90;99.90;;;;;;5100439;28;20052;-61
2024/02/13 07:17:35;;;;;;;2.47;0.77;;;7.00;99.90;;;;;;5094757;28;20090;-61
2024/02/13 07:20:19;;;;;;;9.93;1.05;;;7.00;99.90;;;;;;4741686;28;9999931;-61
2024/02/13 07:22:46;;;;;;;5.10;2.03;;;7.00;99.90;;;;;;5092106;28;20101;-62
2024/02/13 07:25:14;;;;;;;6.45;1.42;;;7.10;99.90;;;;;;5091695;28;20047;-62
2024/02/13 07:27:42;;;;;;;4.47;1.35;;;7.10;99.90;;;;;;5093646;28;20066;-62
2024/02/13 07:30:12;;;;;;;4.97;1.10;;;7.10;99.90;;;;;;5104087;28;20051;-62
2024/02/13 07:32:40;;;;;;;2.88;1.38;;;7.20;99.90;;;;;;5096377;28;20400;-61
2024/02/13 07:35:07;;;;;;;3.13;0.75;;;7.20;99.90;;;;;;5090696;28;20075;-63
2024/02/13 07:37:34;;;;;;;3.65;1.17;;;7.20;99.90;;;;;;5096776;28;20135;-62
2024/02/13 07:40:01;;;;;;;6.18;1.20;;;7.20;99.90;;;;;;5095696;28;20094;-61
2024/02/13 07:42:29;;;;;;;11.98;2.83;;;7.20;99.90;;;;;;5090948;28;20477;-62
2024/02/13 07:44:56;;;;;;;2.75;0.85;;;7.20;99.90;;;;;;5091664;28;20073;-63
2024/02/13 07:47:25;;;;;;;2.33;0.55;;;7.30;99.90;;;;;;5082256;28;20116;-63
2024/02/13 07:49:53;;;;;;;5.97;0.85;;;7.30;99.90;;;;;;5095387;28;20439;-61
2024/02/13 07:52:20;;;;;;;1.33;0.50;;;7.30;99.90;;;;;;5093392;28;20048;-60
2024/02/13 07:54:47;;;;;;;3.47;0.77;;;7.40;99.90;;;;;;5096146;28;20047;-60
2024/02/13 07:57:16;;;;;;;4.30;0.80;;;7.40;99.90;;;;;;5094585;28;20078;-60
2024/02/13 07:59:43;;;;;;;6.25;0.85;;;7.40;99.90;;;;;;5096076;28;20373;-60
2024/02/13 08:02:10;;;;;;;3.05;0.88;;;7.40;99.90;;;;;;5098121;28;20048;-60
2024/02/13 08:04:37;;;;;;;3.15;0.90;;;7.40;99.90;;;;;;5094909;28;20116;-60
2024/02/13 08:07:04;;;;;;;1.98;0.90;;;7.40;99.90;;;;;;5091966;28;20044;-60
2024/02/13 08:09:32;;;;;;;5.00;0.93;;;7.40;99.90;;;;;;5099857;28;20047;-60
2024/02/13 08:12:05;;;;;;;6.43;1.08;;;7.50;99.90;;;;;;5099565;28;20144;-60
2024/02/13 08:14:35;;;;;;;3.63;1.55;;;7.40;99.90;;;;;;5096365;28;20517;-61
2024/02/13 08:17:06;;;;;;;6.03;1.40;;;7.50;99.90;;;;;;5091612;28;20280;-60
2024/02/13 08:19:34;;;;;;;6.75;2.22;;;7.50;99.90;;;;;;5090428;28;20067;-60
2024/02/13 08:22:01;;;;;;;6.22;1.40;;;7.50;99.90;;;;;;5097128;28;20040;-60
2024/02/13 08:24:28;;;;;;;3.92;1.25;;;7.50;99.90;;;;;;5095138;28;20460;-60
2024/02/13 08:26:55;;;;;;;2.65;1.00;;;7.50;99.90;;;;;;5091409;28;20074;-60
2024/02/13 08:29:22;;;;;;;4.43;1.00;;;7.60;99.90;;;;;;5098474;28;20646;-60
2024/02/13 08:31:50;;;;;;;4.00;1.15;;;7.60;99.90;;;;;;5096665;28;20249;-60
2024/02/13 08:34:18;;;;;;;4.95;1.90;;;7.70;99.90;;;;;;5093316;28;20043;-60
2024/02/13 08:36:46;;;;;;;5.00;1.20;;;7.70;99.90;;;;;;5093433;28;20143;-60
2024/02/13 08:39:13;;;;;;;2.38;0.80;;;7.80;99.90;;;;;;5093758;28;20040;-60
2024/02/13 08:41:40;;;;;;;4.93;0.82;;;7.70;99.90;;;;;;5093069;28;20519;-60
2024/02/13 08:44:10;;;;;;;8.95;1.50;;;7.80;99.90;;;;;;5096858;28;20044;-61
2024/02/13 08:46:36;;;;;;;2.95;1.15;;;7.80;99.90;;;;;;5097278;28;20083;-60
2024/02/13 08:49:04;;;;;;;5.43;1.05;;;7.90;99.90;;;;;;5097237;28;20048;-62
2024/02/13 08:51:33;;;;;;;8.13;1.92;;;7.90;99.90;;;;;;5098137;28;20116;-60
2024/02/13 08:54:04;;;;;;;5.70;0.90;;;7.90;99.90;;;;;;5089440;28;20076;-60
2024/02/13 08:56:32;;;;;;;7.10;1.30;;;7.90;99.90;;;;;;5092384;28;20400;-60
2024/02/13 08:59:00;;;;;;;5.03;1.20;;;8.00;99.90;;;;;;5098448;28;20054;-61
2024/02/13 09:01:29;;;;;;;5.22;1.13;;;8.00;99.90;;;;;;5100835;28;20056;-60
2024/02/13 09:03:56;;;;;;;7.20;0.85;;;8.00;99.90;;;;;;5099153;28;20476;-60
2024/02/13 09:06:23;;;;;;;5.97;1.42;;;8.00;99.90;;;;;;5098102;28;20047;-60
2024/02/13 09:08:50;;;;;;;5.90;0.85;;;8.10;99.90;;;;;;5092657;28;20551;-60
2024/02/13 09:11:18;;;;;;;7.63;1.20;;;8.10;99.90;;;;;;5094908;28;20048;-61
2024/02/13 09:13:46;;;;;;;10.32;1.27;;;8.10;99.90;;;;;;5103968;28;20052;-60
2024/02/13 09:16:13;;;;;;;12.45;1.70;;;8.10;99.90;;;;;;5096911;28;20159;-60
2024/02/13 09:18:40;;;;;;;7.70;1.35;;;8.20;99.90;;;;;;5102465;28;20044;-60
2024/02/13 09:21:09;;;;;;;7.57;2.03;;;8.20;99.90;;;;;;5097583;28;20461;-61
2024/02/13 09:23:36;;;;;;;6.85;1.63;;;8.10;99.90;;;;;;5101355;28;20086;-60
2024/02/13 09:26:03;;;;;;;4.97;1.00;;;8.10;99.90;;;;;;5095107;28;20044;-60
2024/02/13 09:28:31;;;;;;;10.82;1.40;;;8.10;99.90;;;;;;5095601;28;20449;-60
2024/02/13 09:30:58;;;;;;;9.40;1.25;;;8.00;99.90;;;;;;5095037;28;20066;-60
2024/02/13 09:33:26;;;;;;;3.47;1.38;;;8.00;99.90;;;;;;5097022;28;20307;-60
2024/02/13 09:35:53;;;;;;;4.65;1.00;;;8.00;99.90;;;;;;5095665;28;20500;-62
2024/02/13 09:38:21;;;;;;;7.10;1.45;;;8.00;99.90;;;;;;5096794;28;20046;-61
2024/02/13 09:40:49;;;;;;;19.90;2.25;;;8.00;99.90;;;;;;5098243;28;20083;-60
2024/02/13 09:43:17;;;;;;;16.08;1.95;;;8.10;99.90;;;;;;5096530;28;20048;-60
2024/02/13 09:45:45;;;;;;;7.22;1.48;;;8.10;99.90;;;;;;5098204;28;20066;-60
2024/02/13 09:48:24;;;;;;;3.70;1.23;;;8.10;99.90;;;;;;5097414;28;20039;-60
2024/02/13 09:50:53;;;;;;;9.65;1.67;;;8.20;99.90;;;;;;5099027;28;20050;-60
2024/02/13 09:53:27;;;;;;;6.38;1.20;;;8.10;99.90;;;;;;5096242;28;20039;-60
2024/02/13 09:55:55;;;;;;;;;;;8.10;99.90;;;;;;4742988;28;10000102;-60
2024/02/13 09:58:22;;;;;;;11.63;2.15;;;8.10;99.90;;;;;;5096540;28;19924;-60
2024/02/13 10:00:49;;;;;;;9.82;2.17;;;8.10;99.90;;;;;;5087705;28;20099;-61
2024/02/13 10:03:16;;;;;;;11.45;1.95;;;8.10;99.90;;;;;;5080795;28;20052;-60
2024/02/13 10:05:43;;;;;;;6.70;1.67;;;8.10;99.90;;;;;;5092876;28;20446;-61
2024/02/13 10:08:14;;;;;;;16.52;2.72;;;8.10;99.90;;;;;;5090893;28;20102;-60
2024/02/13 10:10:42;;;;;;;15.60;2.78;;;8.10;99.90;;;;;;5094166;28;20343;-60
2024/02/13 10:13:12;;;;;;;7.32;2.05;;;8.10;99.90;;;;;;5088918;28;20058;-60
2024/02/13 10:15:43;;;;;;;12.88;2.38;;;8.20;99.90;;;;;;5100183;28;20134;-59
2024/02/13 10:18:11;;;;;;;9.93;2.40;;;8.20;99.90;;;;;;5099212;28;20058;-59
2024/02/13 10:20:42;;;;;;;11.63;3.00;;;8.20;99.90;;;;;;5087896;28;20050;-60
2024/02/13 10:23:13;;;;;;;8.48;2.53;;;8.20;99.90;;;;;;5090518;28;20082;-60
2024/02/13 10:25:42;;;;;;;6.32;2.05;;;8.20;99.90;;;;;;5096913;28;20063;-60
2024/02/13 10:28:12;;;;;;;8.45;1.77;;;8.20;99.90;;;;;;5092498;28;20228;-60
2024/02/13 10:30:39;;;;;;;11.15;1.63;;;8.30;99.90;;;;;;5087964;28;20425;-60
2024/02/13 10:33:06;;;;;;;15.68;2.22;;;8.30;99.90;;;;;;5096505;28;20043;-59
2024/02/13 10:35:33;;;;;;;10.60;1.73;;;8.40;99.90;;;;;;5097688;28;20047;-60
2024/02/13 10:38:03;;;;;;;12.13;3.25;;;8.40;99.90;;;;;;5096048;28;20276;-59
2024/02/13 10:40:30;;;;;;;11.50;1.95;;;8.50;99.90;;;;;;5090078;28;20071;-60
2024/02/13 10:42:58;;;;;;;12.07;2.03;;;8.50;99.90;;;;;;5090898;28;20055;-60
2024/02/13 10:45:29;;;;;;;7.38;1.88;;;8.50;99.90;;;;;;5084924;28;20058;-60
2024/02/13 10:48:05;;;;;;;14.77;1.70;;;8.50;99.90;;;;;;5091438;28;20044;-60
2024/02/13 10:50:33;;;;;;;6.40;1.63;;;8.60;99.90;;;;;;5094065;28;20043;-60
2024/02/13 10:53:00;;;;;;;5.47;2.53;;;8.50;99.90;;;;;;5084648;28;20132;-60
2024/02/13 10:55:27;;;;;;;6.60;1.52;;;8.50;99.90;;;;;;5082111;28;20055;-60
2024/02/13 10:57:54;;;;;;;14.30;2.28;;;8.50;99.90;;;;;;5096769;28;20047;-60
2024/02/13 11:00:21;;;;;;;12.30;3.08;;;8.50;99.90;;;;;;5066827;28;20043;-60
2024/02/13 11:02:51;;;;;;;13.18;2.63;;;8.50;99.90;;;;;;5087020;28;20040;-60
2024/02/13 11:05:19;;;;;;;10.27;3.67;;;8.50;99.90;;;;;;5094078;28;20085;-60
2024/02/13 11:07:46;;;;;;;16.02;3.90;;;8.50;99.90;;;;;;5094925;28;20052;-60
2024/02/13 11:10:13;;;;;;;8.30;3.08;;;8.60;99.90;;;;;;5091875;28;20048;-60
2024/02/13 11:12:42;;;;;;;6.20;2.08;;;8.60;99.90;;;;;;5091493;28;20628;-61
2024/02/13 11:15:11;;;;;;;14.23;2.58;;;8.70;99.90;;;;;;5093483;28;20070;-60
2024/02/13 11:17:53;;;;;;;9.40;1.98;;;8.70;99.90;;;;;;5079442;28;20055;-61
2024/02/13 11:20:29;;;;;;;8.20;2.10;;;8.70;99.90;;;;;;5090299;28;20043;-60
2024/02/13 11:22:59;;;;;;;7.40;2.40;;;8.80;99.90;;;;;;5098641;28;20136;-60
2024/02/13 11:25:27;;;;;;;9.75;1.77;;;8.80;99.90;;;;;;5090729;28;20052;-60
2024/02/13 11:28:07;;;;;;;11.95;2.33;;;8.80;99.90;;;;;;5096364;28;20180;-60
2024/02/13 11:30:40;;;;;;;10.63;2.95;;;8.90;99.90;;;;;;5076436;28;20043;-60
2024/02/13 11:33:08;;;;;;;10.52;3.47;;;8.90;99.90;;;;;;5100160;28;20470;-60
2024/02/13 11:35:46;;;;;;;11.07;2.75;;;8.90;99.90;;;;;;5098234;28;20104;-60
2024/02/13 11:38:18;;;;;;;13.63;2.90;;;9.00;99.90;;;;;;5096917;28;20059;-60
2024/02/13 11:40:55;;;;;;;9.05;2.00;;;9.00;99.90;;;;;;5097659;28;20430;-60
2024/02/13 11:43:24;;;;;;;7.03;1.80;;;9.00;99.90;;;;;;5100024;28;20065;-60
2024/02/13 11:45:51;;;;;;;7.55;1.45;;;9.00;99.90;;;;;;5094353;28;20136;-60
2024/02/13 11:48:20;;;;;;;8.77;1.75;;;9.00;99.90;;;;;;5094935;28;20056;-60
2024/02/13 11:50:47;;;;;;;8.68;1.48;;;9.00;99.90;;;;;;5093325;28;20051;-60
2024/02/13 11:53:17;;;;;;;10.52;1.70;;;9.00;99.90;;;;;;5093345;28;20486;-60
2024/02/13 11:55:45;;;;;;;5.13;1.42;;;9.00;99.90;;;;;;5090304;28;20089;-60
2024/02/13 11:58:19;;;;;;;5.65;1.30;;;9.00;99.90;;;;;;5094700;28;20067;-61
2024/02/13 12:01:00;;;;;;;7.93;1.20;;;8.90;99.90;;;;;;5095125;28;20112;-60
2024/02/13 12:03:28;;;;;;;6.90;1.60;;;9.00;99.90;;;;;;5098688;28;20051;-61
2024/02/13 12:06:00;;;;;;;7.00;1.17;;;8.90;99.90;;;;;;5095511;28;20140;-60
2024/02/13 12:08:28;;;;;;;8.25;1.52;;;9.00;99.90;;;;;;5098222;28;20052;-60
2024/02/13 12:10:57;;;;;;;15.50;1.92;;;9.00;99.90;;;;;;5091986;28;20051;-60
2024/02/13 12:13:24;;;;;;;5.97;1.48;;;9.00;99.90;;;;;;5093445;28;20047;-60
2024/02/13 12:15:51;;;;;;;3.92;1.10;;;9.00;99.90;;;;;;5099898;28;20424;-60
2024/02/13 12:18:18;;;;;;;10.05;1.75;;;9.00;99.90;;;;;;5099003;28;20418;-60
2024/02/13 12:20:47;;;;;;;5.15;1.30;;;9.10;99.90;;;;;;5091927;28;20079;-60
2024/02/13 12:23:16;;;;;;;12.98;1.70;;;9.10;99.90;;;;;;5098460;28;20048;-60
2024/02/13 12:25:45;;;;;;;12.10;2.40;;;9.10;99.90;;;;;;5082116;28;20047;-60
2024/02/13 12:28:13;;;;;;;8.82;1.95;;;9.10;99.90;;;;;;5095914;28;20036;-60
2024/02/13 12:30:47;;;;;;;10.02;1.45;;;9.10;99.90;;;;;;5089738;28;20467;-60
2024/02/13 12:33:20;;;;;;;6.97;1.90;;;9.20;99.90;;;;;;5097001;28;20055;-60
2024/02/13 12:36:01;;;;;;;7.65;1.75;;;9.30;99.90;;;;;;5099291;28;21275;-60
2024/02/13 12:38:29;;;;;;;3.47;1.50;;;9.20;99.90;;;;;;5088581;28;20455;-60
2024/02/13 12:40:58;;;;;;;7.53;1.35;;;9.30;99.90;;;;;;5099981;28;20044;-60
2024/02/13 12:43:27;;;;;;;7.50;1.40;;;9.20;99.90;;;;;;5090321;28;20047;-61
2024/02/13 12:46:05;;;;;;;9.60;2.10;;;9.20;99.90;;;;;;5095949;28;20226;-60
2024/02/13 12:48:36;;;;;;;13.90;1.90;;;9.20;99.90;;;;;;5100239;28;20079;-60
2024/02/13 12:51:09;;;;;;;7.40;1.73;;;9.20;99.90;;;;;;5100317;28;20058;-60
2024/02/13 12:53:39;;;;;;;15.27;1.65;;;9.20;99.90;;;;;;5100619;28;20052;-60
2024/02/13 12:56:08;;;;;;;6.20;1.23;;;9.20;99.90;;;;;;5095031;28;20918;-60
2024/02/13 12:58:36;;;;;;;11.43;2.35;;;9.20;99.90;;;;;;5098221;28;20044;-60
2024/02/13 13:01:04;;;;;;;5.63;1.48;;;9.20;99.90;;;;;;5089916;28;20056;-60
2024/02/13 13:03:31;;;;;;;6.30;1.50;;;9.20;99.90;;;;;;5098341;28;20425;-60
2024/02/13 13:05:58;;;;;;;5.65;1.88;;;9.20;99.90;;;;;;5101275;28;20422;-60